createdAt,value
2023-01-27T00:00:53.195Z,-1.50
2023-01-27T00:03:20.316Z,-1.50
2023-01-27T00:05:47.236Z,-1.60
2023-01-27T00:08:16.845Z,-1.50
2023-01-27T00:10:44.388Z,-1.50
2023-01-27T00:13:28.562Z,-1.50
2023-01-27T00:15:55.955Z,-1.50
2023-01-27T00:18:23.684Z,-1.50
2023-01-27T00:21:09.479Z,-1.60
2023-01-27T00:23:55.083Z,-1.50
2023-01-27T00:26:22.229Z,-1.50
2023-01-27T00:28:49.047Z,-1.60
2023-01-27T00:31:36.458Z,-1.60
2023-01-27T00:34:09.332Z,-1.60
2023-01-27T00:36:38.251Z,-1.60
2023-01-27T00:39:09.038Z,-1.60
2023-01-27T00:41:36.288Z,-1.60
2023-01-27T00:44:05.631Z,-1.60
2023-01-27T00:46:32.762Z,-1.60
2023-01-27T00:48:59.586Z,-1.60
2023-01-27T00:51:26.384Z,-1.60
2023-01-27T00:53:53.137Z,-1.60
2023-01-27T00:56:19.987Z,-1.60
2023-01-27T00:58:46.854Z,-1.60
2023-01-27T01:01:16.225Z,-1.60
2023-01-27T01:03:43.471Z,-1.60
2023-01-27T01:06:12.935Z,-1.60
2023-01-27T01:08:39.960Z,-1.60
2023-01-27T01:11:09.602Z,-1.70
2023-01-27T01:13:36.449Z,-1.70
2023-01-27T01:16:08.255Z,-1.50
2023-01-27T01:18:35.255Z,-1.70
2023-01-27T01:21:02.141Z,-1.60
2023-01-27T01:23:29.193Z,-1.60
2023-01-27T01:25:57.441Z,-1.70
2023-01-27T01:28:25.392Z,-1.70
2023-01-27T01:30:52.423Z,-1.60
2023-01-27T01:33:19.222Z,-1.70
2023-01-27T01:35:46.142Z,-1.70
2023-01-27T01:38:13.549Z,-1.70
2023-01-27T01:40:42.673Z,-1.70
2023-01-27T01:43:17.781Z,-1.70
2023-01-27T01:45:53.961Z,-1.70
2023-01-27T01:48:26.761Z,-1.70
2023-01-27T01:51:08.424Z,-1.60
2023-01-27T01:53:54.654Z,-1.70
2023-01-27T01:56:32.010Z,-1.70
2023-01-27T01:59:04.116Z,-1.60
2023-01-27T02:01:31.189Z,-1.60
2023-01-27T02:04:02.908Z,-1.70
2023-01-27T02:06:30.596Z,-1.70
2023-01-27T02:08:57.611Z,-1.80
2023-01-27T02:11:24.848Z,-1.70
2023-01-27T02:13:52.819Z,-1.70
2023-01-27T02:16:19.888Z,-1.70
2023-01-27T02:18:46.983Z,-1.80
2023-01-27T02:21:14.205Z,-1.70
2023-01-27T02:23:57.318Z,-1.70
2023-01-27T02:26:32.103Z,-1.70
2023-01-27T02:29:06.315Z,-1.70
2023-01-27T02:31:39.885Z,-1.70
2023-01-27T02:34:14.063Z,-1.70
2023-01-27T02:36:54.430Z,-1.70
2023-01-27T02:39:24.263Z,-1.70
2023-01-27T02:41:54.858Z,-1.70
2023-01-27T02:44:21.796Z,-1.70
2023-01-27T02:46:48.992Z,-1.70
2023-01-27T02:49:15.928Z,-1.70
2023-01-27T02:51:42.913Z,-1.60
2023-01-27T02:54:09.945Z,-1.70
2023-01-27T02:56:36.624Z,-1.60
2023-01-27T02:59:03.388Z,-1.60
2023-01-27T03:01:32.603Z,-1.60
2023-01-27T03:04:00.186Z,-1.60
2023-01-27T03:06:26.881Z,-1.60
2023-01-27T03:08:53.622Z,-1.60
2023-01-27T03:11:40.283Z,-1.70
2023-01-27T03:14:08.474Z,-1.70
2023-01-27T03:16:54.180Z,-1.70
2023-01-27T03:19:20.980Z,-1.70
2023-01-27T03:21:51.232Z,-1.70
2023-01-27T03:24:18.563Z,-1.70
2023-01-27T03:26:45.625Z,-1.70
2023-01-27T03:29:31.271Z,-1.70
2023-01-27T03:31:58.213Z,-1.70
2023-01-27T03:34:25.080Z,-1.60
2023-01-27T03:37:10.133Z,-1.70
2023-01-27T03:39:55.509Z,-1.60
2023-01-27T03:42:41.057Z,-1.60
2023-01-27T03:45:27.124Z,-1.60
2023-01-27T03:47:53.774Z,-1.70
2023-01-27T03:50:20.585Z,-1.70
2023-01-27T03:53:02.931Z,-1.70
2023-01-27T03:55:34.804Z,-1.70
2023-01-27T03:58:19.964Z,-1.70
2023-01-27T04:00:52.392Z,-1.70
2023-01-27T04:03:38.643Z,-1.60
2023-01-27T04:06:26.329Z,-1.60
2023-01-27T04:08:53.149Z,-1.70
2023-01-27T04:11:38.953Z,-1.70
2023-01-27T04:14:07.003Z,-1.70
2023-01-27T04:16:36.680Z,-1.60
2023-01-27T04:19:05.620Z,-1.60
2023-01-27T04:21:33.295Z,-1.60
2023-01-27T04:24:00.335Z,-1.60
2023-01-27T04:26:33.247Z,-1.60
2023-01-27T04:29:01.551Z,-1.70
2023-01-27T04:31:28.554Z,-1.70
2023-01-27T04:33:55.576Z,-1.70
2023-01-27T04:36:22.770Z,-1.70
2023-01-27T04:38:49.699Z,-1.70
2023-01-27T04:41:16.384Z,-1.70
2023-01-27T04:43:43.257Z,-1.60
2023-01-27T04:46:10.258Z,-1.70
2023-01-27T04:48:40.474Z,-1.60
2023-01-27T04:51:07.228Z,-1.60
2023-01-27T04:53:34.011Z,-1.60
2023-01-27T04:56:05.306Z,-1.60
2023-01-27T04:58:32.484Z,-1.60
2023-01-27T05:00:59.334Z,-1.60
2023-01-27T05:03:26.058Z,-1.60
2023-01-27T05:05:52.849Z,-1.60
2023-01-27T05:08:19.710Z,-1.60
2023-01-27T05:10:46.850Z,-1.70
2023-01-27T05:13:13.603Z,-1.70
2023-01-27T05:15:40.567Z,-1.60
2023-01-27T05:18:07.314Z,-1.60
2023-01-27T05:20:34.114Z,-1.70
2023-01-27T05:23:19.683Z,-1.70
2023-01-27T05:25:46.566Z,-1.70
2023-01-27T05:28:13.495Z,-1.70
2023-01-27T05:30:40.189Z,-1.60
2023-01-27T05:33:08.469Z,-1.70
2023-01-27T05:35:35.691Z,-1.70
2023-01-27T05:38:02.501Z,-1.60
2023-01-27T05:40:29.766Z,-1.70
2023-01-27T05:42:56.483Z,-1.60
2023-01-27T05:45:23.325Z,-1.70
2023-01-27T05:47:51.403Z,-1.60
2023-01-27T05:50:18.767Z,-1.60
2023-01-27T05:52:45.815Z,-1.70
2023-01-27T05:55:13.054Z,-1.60
2023-01-27T05:57:39.943Z,-1.60
2023-01-27T06:00:07.263Z,-1.60
2023-01-27T06:02:34.008Z,-1.60
2023-01-27T06:05:00.793Z,-1.60
2023-01-27T06:07:27.582Z,-1.70
2023-01-27T06:09:54.282Z,-1.70
2023-01-27T06:12:20.958Z,-1.70
2023-01-27T06:14:47.694Z,-1.70
2023-01-27T06:17:15.472Z,-1.70
2023-01-27T06:19:42.374Z,-1.60
2023-01-27T06:22:09.233Z,-1.70
2023-01-27T06:24:35.972Z,-1.70
2023-01-27T06:27:02.699Z,-1.70
2023-01-27T06:29:29.434Z,-1.70
2023-01-27T06:31:56.330Z,-1.70
2023-01-27T06:34:23.168Z,-1.60
2023-01-27T06:36:49.983Z,-1.70
2023-01-27T06:39:16.708Z,-1.70
2023-01-27T06:41:43.495Z,-1.70
2023-01-27T06:44:10.253Z,-1.70
2023-01-27T06:46:37.441Z,-1.70
2023-01-27T06:49:04.321Z,-1.60
2023-01-27T06:51:31.149Z,-1.70
2023-01-27T06:53:57.840Z,-1.70
2023-01-27T06:56:24.531Z,-1.70
2023-01-27T06:58:51.499Z,-1.70
2023-01-27T07:01:18.337Z,-1.70
2023-01-27T07:03:45.411Z,-1.70
2023-01-27T07:06:12.357Z,-1.70
2023-01-27T07:08:39.139Z,-1.70
2023-01-27T07:11:06.080Z,-1.70
2023-01-27T07:13:32.833Z,-1.70
2023-01-27T07:16:00.512Z,-1.70
2023-01-27T07:18:27.272Z,-1.80
2023-01-27T07:20:53.962Z,-1.70
2023-01-27T07:23:20.967Z,-1.70
2023-01-27T07:25:47.963Z,-1.70
2023-01-27T07:28:14.666Z,-1.70
2023-01-27T07:30:41.539Z,-1.60
2023-01-27T07:33:11.291Z,-1.60
2023-01-27T07:35:39.107Z,-1.70
2023-01-27T07:38:07.174Z,-1.60
2023-01-27T07:40:34.767Z,-1.70
2023-01-27T07:43:02.238Z,-1.70
2023-01-27T07:45:29.815Z,-1.70
2023-01-27T07:48:06.253Z,-1.60
2023-01-27T07:50:33.289Z,-1.60
2023-01-27T07:53:04.298Z,-1.60
2023-01-27T07:55:32.618Z,-1.60
2023-01-27T07:57:59.476Z,-1.60
2023-01-27T08:00:28.117Z,-1.60
2023-01-27T08:02:55.523Z,-1.60
2023-01-27T08:05:25.540Z,-1.60
2023-01-27T08:07:53.829Z,-1.60
2023-01-27T08:10:20.813Z,-1.60
2023-01-27T08:12:47.987Z,-1.60
2023-01-27T08:15:18.441Z,-1.60
2023-01-27T08:17:53.590Z,-1.60
2023-01-27T08:20:20.331Z,-1.60
2023-01-27T08:22:47.090Z,-1.50
2023-01-27T08:25:13.861Z,-1.50
2023-01-27T08:27:40.562Z,-1.50
2023-01-27T08:30:08.079Z,-1.50
2023-01-27T08:32:35.050Z,-1.50
2023-01-27T08:35:01.788Z,-1.60
2023-01-27T08:37:28.475Z,-1.60
2023-01-27T08:39:55.205Z,-1.60
2023-01-27T08:42:21.889Z,-1.60
2023-01-27T08:44:48.712Z,-1.60
2023-01-27T08:47:15.815Z,-1.60
2023-01-27T08:49:43.045Z,-1.60
2023-01-27T08:52:09.754Z,-1.60
2023-01-27T08:54:36.514Z,-1.60
2023-01-27T08:57:03.283Z,-1.60
2023-01-27T08:59:30.001Z,-1.60
2023-01-27T09:01:56.734Z,-1.50
2023-01-27T09:04:23.598Z,-1.50
2023-01-27T09:06:50.557Z,-1.50
2023-01-27T09:09:17.362Z,-1.50
2023-01-27T09:11:45.181Z,-1.50
2023-01-27T09:14:12.298Z,-1.50
2023-01-27T09:16:39.206Z,-1.50
2023-01-27T09:19:06.014Z,-1.50
2023-01-27T09:21:32.784Z,-1.50
2023-01-27T09:23:59.572Z,-1.60
2023-01-27T09:26:26.338Z,-1.60
2023-01-27T09:28:53.084Z,-1.50
2023-01-27T09:31:19.889Z,-1.60
2023-01-27T09:33:46.661Z,-1.60
2023-01-27T09:36:17.369Z,-1.60
2023-01-27T09:38:52.412Z,-1.60
2023-01-27T09:41:21.841Z,-1.60
2023-01-27T09:44:10.591Z,-1.60
2023-01-27T09:46:46.074Z,-1.60
2023-01-27T09:49:53.728Z,-1.60
2023-01-27T09:52:47.649Z,-1.60
2023-01-27T09:55:53.061Z,-1.60
2023-01-27T09:58:45.909Z,-1.60
2023-01-27T10:01:49.093Z,-1.60
2023-01-27T10:04:37.690Z,-1.60
2023-01-27T10:07:42.313Z,-1.50
2023-01-27T10:10:30.011Z,-1.50
2023-01-27T10:13:11.672Z,-1.50
2023-01-27T10:15:52.911Z,-1.50
2023-01-27T10:18:29.266Z,-1.50
2023-01-27T10:21:07.701Z,-1.50
2023-01-27T10:23:40.287Z,-1.50
2023-01-27T10:26:29.507Z,-1.50
2023-01-27T10:29:08.715Z,-1.50
2023-01-27T10:32:17.217Z,-1.60
2023-01-27T10:35:16.033Z,-1.60
2023-01-27T10:37:51.986Z,-1.60
2023-01-27T10:40:29.521Z,-1.60
2023-01-27T10:43:06.432Z,-1.60
2023-01-27T10:45:38.439Z,-1.60
2023-01-27T10:48:14.045Z,-1.60
2023-01-27T10:50:45.997Z,-1.60
2023-01-27T10:53:16.830Z,-1.60
2023-01-27T10:56:03.104Z,-1.60
2023-01-27T10:58:42.468Z,-1.50
2023-01-27T11:01:21.013Z,-1.50
2023-01-27T11:04:12.998Z,-1.50
2023-01-27T11:06:41.869Z,-1.50
2023-01-27T11:09:34.917Z,-1.50
2023-01-27T11:12:09.958Z,-1.50
2023-01-27T11:14:52.136Z,-1.50
2023-01-27T11:17:39.076Z,-1.60
2023-01-27T11:20:23.705Z,-1.50
2023-01-27T11:22:57.860Z,-1.40
2023-01-27T11:25:52.841Z,-1.40
2023-01-27T11:28:45.472Z,-1.40
2023-01-27T11:31:26.181Z,-1.50
2023-01-27T11:33:58.088Z,-1.50
2023-01-27T11:36:28.355Z,-1.40
2023-01-27T11:38:56.502Z,-1.40
2023-01-27T11:41:24.075Z,-1.40
2023-01-27T11:43:51.703Z,-1.40
2023-01-27T11:46:23.801Z,-1.50
2023-01-27T11:48:57.239Z,-1.50
2023-01-27T11:51:29.031Z,-1.50
2023-01-27T11:54:06.692Z,-1.50
2023-01-27T11:56:36.365Z,-1.40
2023-01-27T11:59:13.757Z,-1.40
2023-01-27T12:01:56.825Z,-1.40
2023-01-27T12:04:51.761Z,-1.40
2023-01-27T12:07:30.280Z,-1.40
2023-01-27T12:09:57.229Z,-1.30
2023-01-27T12:12:26.940Z,-1.30
2023-01-27T12:14:58.178Z,-1.30
2023-01-27T12:17:31.069Z,-1.40
2023-01-27T12:20:02.075Z,-1.40
2023-01-27T12:22:36.207Z,-1.40
2023-01-27T12:25:08.269Z,-1.30
2023-01-27T12:27:49.176Z,-1.30
2023-01-27T12:30:32.449Z,-1.20
2023-01-27T12:32:59.840Z,-1.20
2023-01-27T12:35:32.282Z,-1.30
2023-01-27T12:38:06.836Z,-1.30
2023-01-27T12:40:34.261Z,-1.20
2023-01-27T12:43:16.851Z,-1.30
2023-01-27T12:45:44.609Z,-1.20
2023-01-27T12:48:14.192Z,-1.20
2023-01-27T12:50:43.402Z,-1.30
2023-01-27T12:53:25.510Z,-1.20
2023-01-27T12:56:14.164Z,-1.10
2023-01-27T12:58:54.090Z,-1.20
2023-01-27T13:01:26.972Z,-1.10
2023-01-27T13:04:04.524Z,-1.10
2023-01-27T13:06:39.355Z,-1.20
2023-01-27T13:09:06.398Z,-1.10
2023-01-27T13:11:37.645Z,-1.10
2023-01-27T13:14:08.458Z,-1.10
2023-01-27T13:16:36.508Z,-1.20
2023-01-27T13:19:15.667Z,-1.20
2023-01-27T13:21:43.139Z,-1.10
2023-01-27T13:24:19.661Z,-1.10
2023-01-27T13:26:49.345Z,-1.10
2023-01-27T13:29:24.574Z,-1.10
2023-01-27T13:31:57.259Z,-1.10
2023-01-27T13:34:32.805Z,-1.00
2023-01-27T13:37:12.171Z,-1.00
2023-01-27T13:40:01.820Z,-1.00
2023-01-27T13:42:46.437Z,-1.00
2023-01-27T13:45:33.111Z,-1.00
2023-01-27T13:48:10.271Z,-1.00
2023-01-27T13:50:42.327Z,-1.00
2023-01-27T13:53:13.649Z,-1.00
2023-01-27T13:56:01.469Z,-1.00
2023-01-27T13:58:28.491Z,-1.00
2023-01-27T14:01:13.120Z,-1.00
2023-01-27T14:03:54.001Z,-1.00
2023-01-27T14:06:27.210Z,-1.00
2023-01-27T14:09:19.413Z,-1.00
2023-01-27T14:12:24.467Z,-1.00
2023-01-27T14:15:14.795Z,-1.00
2023-01-27T14:17:53.574Z,-1.00
2023-01-27T14:20:29.345Z,-1.00
2023-01-27T14:23:14.874Z,-1.00
2023-01-27T14:25:53.027Z,-1.00
2023-01-27T14:28:28.445Z,-0.90
2023-01-27T14:31:04.472Z,-0.90
2023-01-27T14:33:46.060Z,-1.00
2023-01-27T14:36:38.056Z,-1.00
2023-01-27T14:39:20.218Z,-1.00
2023-01-27T14:41:57.024Z,-1.00
2023-01-27T14:44:43.932Z,-0.90
2023-01-27T14:47:26.556Z,-1.00
2023-01-27T14:50:03.543Z,-1.00
2023-01-27T14:52:41.844Z,-0.90
2023-01-27T14:55:29.658Z,-1.00
2023-01-27T14:58:05.755Z,-1.10
2023-01-27T15:00:58.468Z,-1.00
2023-01-27T15:03:43.192Z,-1.00
2023-01-27T15:06:14.594Z,-1.10
2023-01-27T15:08:51.033Z,-1.00
2023-01-27T15:11:20.645Z,-1.10
2023-01-27T15:13:55.464Z,-1.10
2023-01-27T15:16:40.805Z,-1.10
2023-01-27T15:19:13.893Z,-1.10
2023-01-27T15:21:59.005Z,-1.10
2023-01-27T15:24:59.756Z,-1.10
2023-01-27T15:27:27.715Z,-1.10
2023-01-27T15:29:54.526Z,-1.10
2023-01-27T15:32:22.300Z,-1.10
2023-01-27T15:35:34.555Z,-1.10
2023-01-27T15:38:18.278Z,-1.10
2023-01-27T15:41:04.610Z,-1.10
2023-01-27T15:43:32.175Z,-1.10
2023-01-27T15:46:27.291Z,-1.10
2023-01-27T15:48:56.521Z,-1.10
2023-01-27T15:51:24.418Z,-1.10
2023-01-27T15:53:55.022Z,-1.10
2023-01-27T15:56:40.082Z,-1.10
2023-01-27T15:59:14.771Z,-1.10
2023-01-27T16:01:41.709Z,-1.10
2023-01-27T16:04:21.710Z,-1.10
2023-01-27T16:07:03.594Z,-1.10
2023-01-27T16:09:36.540Z,-1.00
2023-01-27T16:12:27.056Z,-1.10
2023-01-27T16:15:15.895Z,-1.10
2023-01-27T16:18:11.829Z,-1.10
2023-01-27T16:20:53.012Z,-1.00
2023-01-27T16:23:39.437Z,-1.00
2023-01-27T16:26:50.492Z,-1.10
2023-01-27T16:29:29.951Z,-1.00
2023-01-27T16:32:03.181Z,-1.00
2023-01-27T16:34:38.045Z,-1.00
2023-01-27T16:37:15.736Z,-1.00
2023-01-27T16:39:47.011Z,-1.00
2023-01-27T16:42:15.495Z,-1.00
2023-01-27T16:44:46.733Z,-1.00
2023-01-27T16:47:43.067Z,-1.00
2023-01-27T16:50:34.707Z,-1.00
2023-01-27T16:53:03.910Z,-1.00
2023-01-27T16:55:31.122Z,-1.10
2023-01-27T16:57:59.296Z,-1.10
2023-01-27T17:00:32.750Z,-1.10
2023-01-27T17:03:02.997Z,-1.10
2023-01-27T17:05:30.001Z,-1.10
2023-01-27T17:08:23.398Z,-1.10
2023-01-27T17:10:54.282Z,-1.20
2023-01-27T17:13:30.666Z,-1.10
2023-01-27T17:15:58.933Z,-1.10
2023-01-27T17:18:26.005Z,-1.20
2023-01-27T17:20:53.391Z,-1.10
2023-01-27T17:23:32.725Z,-1.10
2023-01-27T17:26:05.784Z,-1.10
2023-01-27T17:28:32.787Z,-1.10
2023-01-27T17:31:07.150Z,-1.10
2023-01-27T17:33:35.648Z,-1.00
2023-01-27T17:36:11.369Z,-1.10
2023-01-27T17:38:48.845Z,-1.10
2023-01-27T17:41:26.765Z,-1.10
2023-01-27T17:43:55.889Z,-1.10
2023-01-27T17:46:26.214Z,-1.10
2023-01-27T17:49:04.951Z,-1.00
2023-01-27T17:51:41.995Z,-1.00
2023-01-27T17:54:33.976Z,-1.00
2023-01-27T17:57:36.352Z,-1.10
2023-01-27T18:00:26.175Z,-1.10
2023-01-27T18:03:13.991Z,-1.10
2023-01-27T18:05:44.349Z,-1.00
2023-01-27T18:08:11.217Z,-1.00
2023-01-27T18:10:44.043Z,-1.10
2023-01-27T18:13:19.700Z,-1.00
2023-01-27T18:16:00.106Z,-1.00
2023-01-27T18:18:29.640Z,-1.00
2023-01-27T18:21:08.613Z,-1.00
2023-01-27T18:23:48.767Z,-1.10
2023-01-27T18:26:26.679Z,-1.00
2023-01-27T18:28:59.794Z,-1.00
2023-01-27T18:31:34.396Z,-1.10
2023-01-27T18:34:20.171Z,-1.00
2023-01-27T18:37:03.617Z,-1.00
2023-01-27T18:39:39.368Z,-1.10
2023-01-27T18:42:18.148Z,-1.00
2023-01-27T18:44:45.352Z,-1.00
2023-01-27T18:47:17.953Z,-1.00
2023-01-27T18:50:02.121Z,-1.00
2023-01-27T18:52:29.504Z,-1.00
2023-01-27T18:55:06.744Z,-1.00
2023-01-27T18:57:33.585Z,-1.00
2023-01-27T19:00:00.513Z,-0.90
2023-01-27T19:02:27.423Z,-1.00
2023-01-27T19:04:54.172Z,-0.90
2023-01-27T19:07:20.936Z,-1.00
2023-01-27T19:09:48.883Z,-0.90
2023-01-27T19:12:15.699Z,-0.90
2023-01-27T19:14:42.560Z,-0.90
2023-01-27T19:17:19.381Z,-0.90
2023-01-27T19:19:46.941Z,-0.90
2023-01-27T19:22:16.931Z,-0.90
2023-01-27T19:24:45.522Z,-0.90
2023-01-27T19:27:14.420Z,-0.90
2023-01-27T19:29:41.500Z,-0.90
2023-01-27T19:32:15.105Z,-0.90
2023-01-27T19:34:42.061Z,-0.90
2023-01-27T19:37:19.890Z,-1.00
2023-01-27T19:39:48.969Z,-0.90
2023-01-27T19:42:16.287Z,-0.90
2023-01-27T19:44:43.293Z,-0.90
2023-01-27T19:47:12.655Z,-0.90
2023-01-27T19:49:40.132Z,-0.90
2023-01-27T19:52:06.902Z,-0.90
2023-01-27T19:54:34.340Z,-0.90
2023-01-27T19:57:01.401Z,-0.90
2023-01-27T19:59:28.587Z,-0.90
2023-01-27T20:01:56.738Z,-0.90
2023-01-27T20:04:23.855Z,-0.90
2023-01-27T20:06:50.583Z,-0.90
2023-01-27T20:09:17.469Z,-0.90
2023-01-27T20:11:44.988Z,-0.90
2023-01-27T20:14:19.918Z,-0.90
2023-01-27T20:16:47.440Z,-0.90
2023-01-27T20:19:15.965Z,-0.90
2023-01-27T20:21:44.294Z,-0.90
2023-01-27T20:24:19.143Z,-0.90
2023-01-27T20:26:46.143Z,-0.90
2023-01-27T20:29:14.087Z,-0.90
2023-01-27T20:31:41.406Z,-0.90
2023-01-27T20:34:08.224Z,-0.90
2023-01-27T20:36:35.349Z,-0.90
2023-01-27T20:39:02.245Z,-0.80
2023-01-27T20:41:29.023Z,-0.90
2023-01-27T20:43:57.420Z,-0.90
2023-01-27T20:46:24.528Z,-0.90
2023-01-27T20:48:51.563Z,-0.90
2023-01-27T20:51:18.397Z,-0.80
2023-01-27T20:53:45.675Z,-0.80
2023-01-27T20:56:17.920Z,-0.80
2023-01-27T20:58:45.117Z,-0.80
2023-01-27T21:01:16.135Z,-0.80
2023-01-27T21:03:43.706Z,-0.80
2023-01-27T21:06:12.794Z,-0.80
2023-01-27T21:08:39.546Z,-0.80
2023-01-27T21:11:07.896Z,-0.80
2023-01-27T21:13:34.641Z,-0.80
2023-01-27T21:16:02.216Z,-0.80
2023-01-27T21:18:29.109Z,-0.80
2023-01-27T21:20:59.412Z,-0.80
2023-01-27T21:23:31.498Z,-0.80
2023-01-27T21:26:09.220Z,-0.80
2023-01-27T21:28:36.025Z,-0.80
2023-01-27T21:31:07.553Z,-0.80
2023-01-27T21:33:36.217Z,-0.80
2023-01-27T21:36:04.121Z,-0.80
2023-01-27T21:38:31.804Z,-0.70
2023-01-27T21:41:08.461Z,-0.80
2023-01-27T21:43:54.945Z,-0.80
2023-01-27T21:46:21.712Z,-0.70
2023-01-27T21:48:48.674Z,-0.80
2023-01-27T21:51:15.540Z,-0.70
2023-01-27T21:53:42.221Z,-0.80
2023-01-27T21:56:10.628Z,-0.70
2023-01-27T21:58:39.777Z,-0.80
2023-01-27T22:01:08.588Z,-0.80
2023-01-27T22:03:36.823Z,-0.70
2023-01-27T22:06:08.194Z,-0.70
2023-01-27T22:08:35.130Z,-0.80
2023-01-27T22:11:11.600Z,-0.70
2023-01-27T22:13:39.189Z,-0.70
2023-01-27T22:16:06.626Z,-0.70
2023-01-27T22:18:33.425Z,-0.70
2023-01-27T22:21:03.013Z,-0.70
2023-01-27T22:23:29.965Z,-0.70
2023-01-27T22:25:56.767Z,-0.70
2023-01-27T22:28:24.332Z,-0.70
2023-01-27T22:30:51.235Z,-0.80
2023-01-27T22:33:18.231Z,-0.70
2023-01-27T22:35:44.958Z,-0.70
2023-01-27T22:38:11.815Z,-0.70
2023-01-27T22:40:38.705Z,-0.70
2023-01-27T22:43:09.380Z,-0.70
2023-01-27T22:45:40.129Z,-0.70
2023-01-27T22:48:08.723Z,-0.70
2023-01-27T22:50:36.179Z,-0.70
2023-01-27T22:53:04.100Z,-0.70
2023-01-27T22:55:30.877Z,-0.70
2023-01-27T22:57:57.635Z,-0.70
2023-01-27T23:00:24.484Z,-0.70
2023-01-27T23:02:51.169Z,-0.70
2023-01-27T23:05:17.961Z,-0.70
2023-01-27T23:07:46.257Z,-0.70
2023-01-27T23:10:13.051Z,-0.70
2023-01-27T23:12:39.774Z,-0.70
2023-01-27T23:15:07.256Z,-0.70
2023-01-27T23:17:34.208Z,-0.70
2023-01-27T23:20:00.971Z,-0.70
2023-01-27T23:22:27.744Z,-0.80
2023-01-27T23:24:54.513Z,-0.70
2023-01-27T23:27:21.274Z,-0.70
2023-01-27T23:29:47.930Z,-0.80
2023-01-27T23:32:14.778Z,-0.80
2023-01-27T23:34:41.531Z,-0.80
2023-01-27T23:37:08.219Z,-0.80
2023-01-27T23:39:34.933Z,-0.80
2023-01-27T23:42:01.738Z,-0.70
2023-01-27T23:44:28.435Z,-0.80
2023-01-27T23:46:55.142Z,-0.70
2023-01-27T23:49:21.834Z,-0.80
2023-01-27T23:51:48.576Z,-0.80
2023-01-27T23:54:15.490Z,-0.80
2023-01-27T23:56:42.283Z,-0.80
2023-01-27T23:59:10.980Z,-0.80
